createdAt,value
2019-04-07T00:02:09.232Z,12.60
2019-04-07T00:07:15.098Z,12.70
2019-04-07T00:12:20.352Z,11.40
2019-04-07T00:17:26.151Z,12.10
2019-04-07T00:22:31.474Z,12.00
2019-04-07T00:27:36.896Z,12.53
2019-04-07T00:32:42.785Z,11.43
2019-04-07T00:37:48.306Z,11.90
2019-04-07T00:42:53.553Z,11.47
2019-04-07T00:47:59.366Z,11.90
2019-04-07T00:53:05.445Z,12.50
2019-04-07T00:58:11.550Z,11.67
2019-04-07T01:03:18.263Z,11.47
2019-04-07T01:08:23.792Z,11.97
2019-04-07T01:13:29.705Z,11.83
2019-04-07T01:18:35.618Z,11.90
2019-04-07T01:23:41.489Z,11.28
2019-04-07T01:28:47.113Z,12.63
2019-04-07T01:33:53.132Z,12.67
2019-04-07T01:38:58.754Z,11.83
2019-04-07T01:44:10.185Z,12.03
2019-04-07T01:49:22.254Z,11.53
2019-04-07T01:54:38.423Z,11.53
2019-04-07T01:59:52.100Z,12.37
2019-04-07T02:05:05.551Z,12.57
2019-04-07T02:10:19.647Z,12.67
2019-04-07T02:15:31.864Z,12.50
2019-04-07T02:20:49.902Z,12.37
2019-04-07T02:26:03.585Z,13.37
2019-04-07T02:31:19.289Z,13.47
2019-04-07T02:36:32.213Z,13.17
2019-04-07T02:41:46.687Z,14.05
2019-04-07T02:46:58.821Z,13.80
2019-04-07T02:52:12.559Z,14.57
2019-04-07T02:57:24.757Z,14.67
2019-04-07T03:02:37.677Z,14.30
2019-04-07T03:07:50.355Z,14.07
2019-04-07T03:13:04.980Z,16.37
2019-04-07T03:18:20.174Z,14.73
2019-04-07T03:23:35.019Z,14.90
2019-04-07T03:28:50.244Z,14.73
2019-04-07T03:34:06.190Z,15.20
2019-04-07T03:39:20.663Z,14.90
2019-04-07T03:44:33.095Z,14.40
2019-04-07T03:49:46.222Z,15.33
2019-04-07T03:55:01.221Z,15.63
2019-04-07T04:00:21.934Z,15.53
2019-04-07T04:05:46.109Z,15.95
2019-04-07T04:11:00.485Z,15.50
2019-04-07T04:16:10.584Z,14.80
2019-04-07T04:21:16.414Z,14.60
2019-04-07T04:26:21.818Z,15.07
2019-04-07T04:31:27.392Z,14.63
2019-04-07T04:36:33.495Z,15.57
2019-04-07T04:41:38.846Z,15.00
2019-04-07T04:46:44.125Z,15.73
2019-04-07T04:51:50.124Z,16.90
2019-04-07T04:56:55.533Z,16.43
2019-04-07T05:02:01.136Z,16.30
2019-04-07T05:07:06.615Z,17.20
2019-04-07T05:12:11.875Z,17.00
2019-04-07T05:17:17.373Z,17.60
2019-04-07T05:22:23.426Z,18.60
2019-04-07T05:27:29.339Z,19.67
2019-04-07T05:32:34.543Z,20.07
2019-04-07T05:37:40.569Z,20.27
2019-04-07T05:42:46.528Z,20.07
2019-04-07T05:47:53.344Z,19.60
2019-04-07T05:52:58.800Z,19.90
2019-04-07T05:58:07.019Z,19.60
2019-04-07T06:03:11.234Z,19.77
2019-04-07T06:08:24.650Z,20.33
2019-04-07T06:13:23.743Z,21.27
2019-04-07T06:18:32.637Z,22.32
2019-04-07T06:23:36.417Z,21.50
2019-04-07T06:28:41.993Z,22.23
2019-04-07T06:33:47.213Z,23.43
2019-04-07T06:38:53.682Z,23.93
2019-04-07T06:44:09.872Z,25.47
2019-04-07T06:49:15.072Z,23.87
2019-04-07T06:54:29.820Z,25.00
2019-04-07T06:59:47.141Z,25.03
2019-04-07T07:04:59.355Z,24.73
2019-04-07T07:10:28.714Z,25.93
2019-04-07T07:15:50.075Z,26.05
2019-04-07T07:21:03.738Z,26.10
2019-04-07T07:26:09.828Z,26.77
2019-04-07T07:31:16.653Z,26.10
2019-04-07T07:36:23.987Z,26.37
2019-04-07T07:41:29.427Z,26.67
2019-04-07T07:46:34.790Z,29.00
2019-04-07T07:51:45.121Z,28.97
2019-04-07T07:56:50.488Z,29.35
2019-04-07T08:01:55.567Z,28.93
2019-04-07T08:07:02.567Z,28.63
2019-04-07T08:12:08.367Z,29.70
2019-04-07T08:17:15.958Z,30.00
2019-04-07T08:22:29.950Z,30.90
2019-04-07T08:27:31.052Z,30.05
2019-04-07T08:32:37.670Z,29.97
2019-04-07T08:37:45.792Z,27.67
2019-04-07T08:42:50.224Z,27.73
2019-04-07T08:47:56.290Z,30.57
2019-04-07T08:53:10.495Z,27.93
2019-04-07T08:58:24.887Z,26.23
2019-04-07T09:03:21.973Z,25.07
2019-04-07T09:08:27.429Z,24.83
2019-04-07T09:13:34.178Z,25.50
2019-04-07T09:18:55.142Z,25.40
2019-04-07T09:24:13.805Z,25.53
2019-04-07T09:29:29.237Z,25.53
2019-04-07T09:34:42.964Z,26.17
2019-04-07T09:40:02.212Z,26.30
2019-04-07T09:45:15.984Z,24.70
2019-04-07T09:50:36.415Z,27.13
2019-04-07T09:55:50.535Z,26.63
2019-04-07T10:01:07.970Z,25.50
2019-04-07T10:06:21.984Z,24.60
2019-04-07T10:11:36.217Z,27.47
2019-04-07T10:16:50.706Z,24.23
2019-04-07T10:22:14.989Z,26.80
2019-04-07T10:27:39.698Z,24.60
2019-04-07T10:32:57.439Z,22.03
2019-04-07T10:38:15.362Z,20.70
2019-04-07T10:43:31.350Z,21.10
2019-04-07T10:48:51.089Z,20.15
2019-04-07T10:54:05.769Z,20.47
2019-04-07T10:59:30.880Z,23.57
2019-04-07T11:04:49.590Z,22.37
2019-04-07T11:10:06.666Z,18.27
2019-04-07T11:15:20.942Z,15.67
2019-04-07T11:20:35.202Z,15.15
2019-04-07T11:25:47.870Z,12.33
2019-04-07T11:31:12.262Z,10.43
2019-04-07T11:36:26.089Z,6.10
2019-04-07T11:41:40.274Z,3.42
2019-04-07T11:46:58.122Z,1.47
2019-04-07T11:52:09.286Z,1.10
2019-04-07T11:57:21.583Z,0.90
2019-04-07T12:02:36.376Z,1.30
2019-04-07T12:07:53.918Z,0.93
2019-04-07T12:13:04.802Z,1.37
2019-04-07T12:18:20.232Z,1.10
2019-04-07T12:23:34.033Z,1.37
2019-04-07T12:28:51.443Z,1.40
2019-04-07T12:34:12.021Z,1.40
2019-04-07T12:39:23.110Z,1.60
2019-04-07T12:44:37.393Z,1.57
2019-04-07T12:49:56.159Z,1.47
2019-04-07T12:55:15.389Z,1.17
2019-04-07T13:00:27.629Z,1.00
2019-04-07T13:05:41.186Z,1.30
2019-04-07T13:11:09.495Z,1.75
2019-04-07T13:16:25.082Z,1.40
2019-04-07T13:21:34.046Z,1.80
2019-04-07T13:26:48.789Z,1.80
2019-04-07T13:32:03.362Z,1.70
2019-04-07T13:37:17.303Z,2.13
2019-04-07T13:42:37.892Z,2.20
2019-04-07T13:47:52.460Z,2.40
2019-04-07T13:53:06.713Z,2.20
2019-04-07T13:58:20.850Z,2.03
2019-04-07T14:03:44.884Z,2.10
2019-04-07T14:09:01.410Z,2.97
2019-04-07T14:14:15.740Z,3.87
2019-04-07T14:19:35.355Z,3.40
2019-04-07T14:24:47.146Z,3.13
2019-04-07T14:30:00.406Z,3.43
2019-04-07T14:35:22.619Z,3.40
2019-04-07T14:40:36.664Z,3.37
2019-04-07T14:45:54.077Z,4.67
2019-04-07T14:51:18.223Z,4.57
2019-04-07T14:56:35.694Z,5.10
2019-04-07T15:01:51.320Z,5.83
2019-04-07T15:07:12.284Z,5.80
2019-04-07T15:12:25.051Z,6.40
2019-04-07T15:17:29.943Z,5.37
2019-04-07T15:22:35.734Z,5.35
2019-04-07T15:27:40.991Z,4.87
2019-04-07T15:32:46.387Z,5.17
2019-04-07T15:37:52.464Z,4.83
2019-04-07T15:43:01.486Z,5.20
2019-04-07T15:48:05.125Z,6.60
2019-04-07T15:53:13.519Z,6.17
2019-04-07T15:58:17.458Z,4.30
2019-04-07T16:03:22.923Z,3.73
2019-04-07T16:08:30.560Z,3.57
2019-04-07T16:13:35.881Z,3.53
2019-04-07T16:18:43.415Z,2.77
2019-04-07T16:23:51.886Z,3.93
2019-04-07T16:28:56.245Z,4.30
2019-04-07T16:34:05.730Z,4.10
2019-04-07T16:39:09.846Z,2.90
2019-04-07T16:44:15.905Z,2.80
2019-04-07T16:49:21.660Z,2.77
2019-04-07T16:54:27.218Z,2.60
2019-04-07T16:59:32.798Z,3.30
2019-04-07T17:04:38.513Z,2.70
2019-04-07T17:09:44.681Z,2.60
2019-04-07T17:14:52.132Z,3.50
2019-04-07T17:19:59.488Z,2.37
2019-04-07T17:25:08.647Z,2.00
2019-04-07T17:30:14.923Z,2.00
2019-04-07T17:35:24.465Z,2.27
2019-04-07T17:40:33.198Z,2.90
2019-04-07T17:45:47.908Z,2.80
2019-04-07T17:51:12.102Z,2.20
2019-04-07T17:56:29.908Z,2.50
2019-04-07T18:01:44.327Z,2.90
2019-04-07T18:07:01.946Z,2.70
2019-04-07T18:12:14.556Z,3.00
2019-04-07T18:17:28.017Z,3.30
2019-04-07T18:22:46.024Z,3.90
2019-04-07T18:28:07.024Z,4.17
2019-04-07T18:33:22.884Z,3.47
2019-04-07T18:38:48.417Z,3.53
2019-04-07T18:44:05.624Z,4.40
2019-04-07T18:49:17.021Z,5.43
2019-04-07T18:54:32.370Z,6.30
2019-04-07T18:59:47.407Z,7.43
2019-04-07T19:05:01.702Z,7.50
2019-04-07T19:10:21.361Z,7.43
2019-04-07T19:15:30.678Z,7.70
2019-04-07T19:20:44.023Z,7.60
2019-04-07T19:32:25.906Z,9.57
2019-04-07T19:37:40.683Z,9.30
2019-04-07T19:42:52.431Z,10.60
2019-04-07T19:48:10.084Z,11.40
2019-04-07T19:53:27.400Z,11.70
2019-04-07T19:58:41.039Z,9.47
2019-04-07T20:03:56.663Z,10.37
2019-04-07T20:09:12.258Z,10.90
2019-04-07T20:14:31.462Z,9.90
2019-04-07T20:19:45.014Z,8.55
2019-04-07T20:25:13.251Z,8.77
2019-04-07T20:30:23.329Z,8.93
2019-04-07T20:35:37.221Z,9.63
2019-04-07T20:40:56.060Z,11.13
2019-04-07T20:46:13.283Z,12.27
2019-04-07T20:51:26.462Z,12.93
2019-04-07T20:56:43.675Z,12.88
2019-04-07T21:02:03.145Z,13.37
2019-04-07T21:07:11.932Z,11.43
2019-04-07T21:12:23.505Z,10.20
2019-04-07T21:17:37.585Z,9.83
2019-04-07T21:22:49.739Z,9.80
2019-04-07T21:28:06.090Z,9.23
2019-04-07T21:33:23.771Z,9.73
2019-04-07T21:38:34.974Z,10.10
2019-04-07T21:43:48.857Z,10.30
2019-04-07T21:49:05.838Z,11.93
2019-04-07T21:54:20.058Z,13.53
2019-04-07T21:59:33.957Z,13.53
2019-04-07T22:04:50.638Z,13.67
2019-04-07T22:09:58.917Z,13.63
2019-04-07T22:15:06.522Z,13.63
2019-04-07T22:20:17.740Z,13.77
2019-04-07T22:25:29.131Z,15.10
2019-04-07T22:30:39.253Z,15.87
2019-04-07T22:35:43.977Z,14.30
2019-04-07T22:40:48.697Z,14.20
2019-04-07T22:46:04.205Z,15.77
2019-04-07T22:51:02.869Z,14.93
2019-04-07T22:56:09.063Z,16.10
2019-04-07T23:01:14.839Z,14.97
2019-04-07T23:06:21.028Z,15.37
2019-04-07T23:11:26.369Z,15.23
2019-04-07T23:16:31.710Z,16.63
2019-04-07T23:21:37.476Z,17.77
2019-04-07T23:26:42.763Z,16.33
2019-04-07T23:31:48.018Z,15.80
2019-04-07T23:36:54.069Z,16.20
2019-04-07T23:41:59.419Z,15.73
2019-04-07T23:47:04.817Z,17.00
2019-04-07T23:52:11.048Z,17.07
2019-04-07T23:57:16.502Z,13.90
